Time;durP1;ratioP1;P1;durP2;ratioP2;P2;SDS_P1;SDS_P2;PMS_P1;PMS_P2;Temp;Humidity;BMP_temperature;BMP_pressure;BME280_temperature;BME280_humidity;BME280_pressure;Samples;Min_cycle;Max_cycle;Signal;HPM_P1;HPM_P2
2022/11/02 00:00:19;;;;;;;4.20;2.80;;;;;;;;;;5084024;28;20744;-32
2022/11/02 00:02:47;;;;;;;4.67;3.00;;;;;;;;;;5082599;28;20200;-35
2022/11/02 00:05:14;;;;;;;4.40;3.63;;;;;;;;;;5081486;28;20297;-37
2022/11/02 00:07:43;;;;;;;7.47;3.40;;;;;;;;;;5085493;28;20724;-37
2022/11/02 00:10:10;;;;;;;5.47;2.70;;;;;;;;;;5089643;28;20277;-36
2022/11/02 00:12:38;;;;;;;4.60;3.07;;;;;;;;;;5089630;28;20196;-32
2022/11/02 00:15:07;;;;;;;3.90;3.03;;;;;;;;;;5074741;28;20746;-35
2022/11/02 00:17:36;;;;;;;3.33;3.03;;;;;;;;;;5085956;28;20235;-31
2022/11/02 00:20:06;;;;;;;3.83;2.80;;;;;;;;;;5078110;28;20274;-35
2022/11/02 00:22:34;;;;;;;5.60;3.27;;;;;;;;;;5085302;28;20680;-36
2022/11/02 00:25:03;;;;;;;3.03;2.77;;;;;;;;;;5083971;28;20212;-33
2022/11/02 00:27:30;;;;;;;3.33;2.47;;;;;;;;;;5081032;28;20593;-35
2022/11/02 00:29:57;;;;;;;4.17;2.80;;;;;;;;;;5084774;28;20232;-35
2022/11/02 00:32:26;;;;;;;3.03;2.57;;;;;;;;;;5185835;22;20319;-29
2022/11/02 00:34:53;;;;;;;3.93;2.67;;;;;;;;;;5092654;28;20277;-31
2022/11/02 00:37:21;;;;;;;4.20;2.70;;;;;;;;;;5105249;28;20235;-32
2022/11/02 00:39:48;;;;;;;2.70;2.50;;;;;;;;;;5102751;28;20274;-32
2022/11/02 00:42:15;;;;;;;3.70;2.60;;;;;;;;;;5098434;28;20264;-33
2022/11/02 00:44:42;;;;;;;7.57;3.37;;;;;;;;;;5110374;28;20262;-33
2022/11/02 00:47:10;;;;;;;8.30;3.10;;;;;;;;;;5112770;28;20204;-30
2022/11/02 00:49:39;;;;;;;3.53;2.60;;;;;;;;;;5108043;28;20286;-29
2022/11/02 00:52:06;;;;;;;3.73;2.60;;;;;;;;;;5111720;28;20447;-33
2022/11/02 00:54:34;;;;;;;5.67;2.73;;;;;;;;;;5125214;27;20199;-29
2022/11/02 00:57:01;;;;;;;4.13;3.23;;;;;;;;;;5125999;27;20204;-29
2022/11/02 00:59:28;;;;;;;7.53;2.80;;;;;;;;;;5112926;28;20242;-33
2022/11/02 01:01:55;;;;;;;3.03;2.57;;;;;;;;;;5119340;27;20294;-29
2022/11/02 01:04:22;;;;;;;4.83;2.90;;;;;;;;;;5107729;28;20204;-28
2022/11/02 01:06:51;;;;;;;3.00;2.50;;;;;;;;;;5112185;27;20202;-33
2022/11/02 01:09:20;;;;;;;3.07;2.80;;;;;;;;;;5113369;27;20225;-29
2022/11/02 01:11:47;;;;;;;3.47;2.57;;;;;;;;;;5114118;28;20228;-32
2022/11/02 01:14:14;;;;;;;2.70;2.50;;;;;;;;;;5100456;28;20225;-32
2022/11/02 01:16:43;;;;;;;3.67;2.87;;;;;;;;;;5122170;27;20298;-31
2022/11/02 01:19:11;;;;;;;4.90;2.57;;;;;;;;;;5108594;28;20204;-30
2022/11/02 01:21:38;;;;;;;2.57;2.30;;;;;;;;;;5110619;27;20216;-29
2022/11/02 01:24:07;;;;;;;3.00;2.70;;;;;;;;;;5116031;27;20200;-33
2022/11/02 01:26:34;;;;;;;3.40;3.10;;;;;;;;;;5113163;28;20261;-28
2022/11/02 01:29:01;;;;;;;5.27;3.27;;;;;;;;;;5100269;28;20207;-30
2022/11/02 01:31:28;;;;;;;3.03;2.77;;;;;;;;;;5111555;28;20234;-29
2022/11/02 01:33:55;;;;;;;3.67;2.93;;;;;;;;;;5108829;28;20211;-29
2022/11/02 01:36:22;;;;;;;4.23;2.93;;;;;;;;;;5116269;27;20283;-29
2022/11/02 01:38:50;;;;;;;4.30;2.80;;;;;;;;;;5117911;27;20209;-31
2022/11/02 01:41:19;;;;;;;3.87;3.33;;;;;;;;;;5114055;27;20224;-31
2022/11/02 01:43:49;;;;;;;3.30;2.63;;;;;;;;;;5108322;27;20210;-32
2022/11/02 01:46:19;;;;;;;4.33;2.80;;;;;;;;;;5108495;27;20269;-30
2022/11/02 01:48:49;;;;;;;4.40;2.90;;;;;;;;;;5115456;27;20215;-28
2022/11/02 01:51:19;;;;;;;6.77;2.60;;;;;;;;;;5102746;27;20315;-31
2022/11/02 01:53:47;;;;;;;2.87;2.57;;;;;;;;;;5110272;27;20269;-30
2022/11/02 01:56:16;;;;;;;3.60;2.70;;;;;;;;;;5107558;28;20352;-32
2022/11/02 01:58:47;;;;;;;3.33;3.00;;;;;;;;;;5107383;28;20287;-31
2022/11/02 02:01:14;;;;;;;3.73;2.83;;;;;;;;;;5103530;28;20254;-34
2022/11/02 02:03:42;;;;;;;3.43;3.03;;;;;;;;;;5129086;27;20671;-30
2022/11/02 02:06:10;;;;;;;3.53;2.70;;;;;;;;;;5108902;27;20295;-31
2022/11/02 02:08:39;;;;;;;3.40;2.73;;;;;;;;;;5129261;27;20228;-33
2022/11/02 02:11:24;;;;;;;2.73;2.50;;;;;;;;;;5112774;28;20695;-34
2022/11/02 02:13:53;;;;;;;2.40;2.10;;;;;;;;;;5106197;28;20206;-29
2022/11/02 02:16:23;;;;;;;3.50;2.63;;;;;;;;;;5117397;27;20196;-30
2022/11/02 02:18:53;;;;;;;6.23;2.60;;;;;;;;;;5109090;28;20654;-30
2022/11/02 02:21:30;;;;;;;2.57;2.17;;;;;;;;;;5096788;27;20231;-29
2022/11/02 02:24:09;;;;;;;2.70;2.40;;;;;;;;;;5124615;27;20197;-33
2022/11/02 02:26:54;;;;;;;3.87;2.57;;;;;;;;;;5130187;27;20207;-28
2022/11/02 02:29:25;;;;;;;3.50;2.60;;;;;;;;;;5101591;28;20207;-29
2022/11/02 02:31:56;;;;;;;2.50;2.30;;;;;;;;;;5111541;28;20246;-32
2022/11/02 02:34:26;;;;;;;3.60;2.40;;;;;;;;;;5116994;27;20257;-30
2022/11/02 02:36:56;;;;;;;2.77;2.50;;;;;;;;;;5110511;27;20200;-28
2022/11/02 02:39:25;;;;;;;2.47;2.37;;;;;;;;;;5119028;27;20204;-29
2022/11/02 02:41:57;;;;;;;2.47;2.03;;;;;;;;;;5112105;28;20323;-31
2022/11/02 02:44:27;;;;;;;3.07;2.00;;;;;;;;;;5104496;27;20311;-30
2022/11/02 02:46:57;;;;;;;2.00;1.80;;;;;;;;;;5117185;27;20187;-32
2022/11/02 02:49:26;;;;;;;2.60;2.40;;;;;;;;;;5115999;27;20236;-32
2022/11/02 02:51:54;;;;;;;2.87;2.20;;;;;;;;;;5106771;27;20310;-32
2022/11/02 02:54:23;;;;;;;2.37;2.17;;;;;;;;;;5112363;28;20204;-29
2022/11/02 02:56:52;;;;;;;2.40;2.20;;;;;;;;;;5113221;28;20234;-32
2022/11/02 02:59:22;;;;;;;2.73;2.50;;;;;;;;;;5106155;28;20223;-31
2022/11/02 03:01:51;;;;;;;4.57;2.40;;;;;;;;;;5112726;28;20410;-32
2022/11/02 03:04:18;;;;;;;2.43;2.23;;;;;;;;;;5115026;27;20218;-33
2022/11/02 03:06:47;;;;;;;4.90;2.60;;;;;;;;;;5112146;27;20295;-31
2022/11/02 03:09:18;;;;;;;2.77;2.47;;;;;;;;;;5121891;27;20196;-31
2022/11/02 03:11:50;;;;;;;5.80;2.90;;;;;;;;;;5113577;28;20238;-30
2022/11/02 03:14:22;;;;;;;4.20;2.60;;;;;;;;;;5096919;28;20292;-33
2022/11/02 03:17:03;;;;;;;3.60;2.60;;;;;;;;;;5116536;27;20631;-29
2022/11/02 03:19:35;;;;;;;2.97;2.67;;;;;;;;;;5103939;27;20212;-31
2022/11/02 03:22:05;;;;;;;3.57;2.53;;;;;;;;;;5117222;27;20218;-31
2022/11/02 03:24:35;;;;;;;3.27;2.90;;;;;;;;;;5124001;27;20196;-31
2022/11/02 03:27:07;;;;;;;2.70;2.50;;;;;;;;;;5130763;27;20203;-31
2022/11/02 03:29:39;;;;;;;2.33;2.23;;;;;;;;;;5114298;27;20283;-30
2022/11/02 03:32:09;;;;;;;3.30;2.70;;;;;;;;;;5124715;27;20310;-30
2022/11/02 03:34:39;;;;;;;2.73;2.53;;;;;;;;;;5103100;28;20276;-31
2022/11/02 03:37:11;;;;;;;2.87;2.63;;;;;;;;;;5109218;28;20203;-30
2022/11/02 03:39:41;;;;;;;2.47;2.27;;;;;;;;;;5111005;28;20230;-31
2022/11/02 03:42:10;;;;;;;2.30;2.10;;;;;;;;;;5103062;28;20298;-28
2022/11/02 03:44:39;;;;;;;3.23;2.60;;;;;;;;;;5122326;27;20267;-32
2022/11/02 03:47:09;;;;;;;4.40;2.60;;;;;;;;;;5128431;27;20210;-30
2022/11/02 03:49:36;;;;;;;3.03;2.07;;;;;;;;;;5109921;27;20208;-30
2022/11/02 03:52:06;;;;;;;2.73;2.53;;;;;;;;;;5113891;27;20226;-29
2022/11/02 03:54:39;;;;;;;2.50;2.30;;;;;;;;;;5121169;27;20210;-31
2022/11/02 03:57:08;;;;;;;3.63;2.87;;;;;;;;;;5111038;28;20229;-31
2022/11/02 03:59:35;;;;;;;2.87;2.57;;;;;;;;;;5097456;28;20209;-28
2022/11/02 04:02:03;;;;;;;2.67;2.40;;;;;;;;;;5109720;28;20286;-28
2022/11/02 04:04:31;;;;;;;4.13;2.87;;;;;;;;;;5104788;27;20272;-30
2022/11/02 04:06:58;;;;;;;3.30;2.80;;;;;;;;;;5102014;28;20290;-31
2022/11/02 04:09:25;;;;;;;4.40;2.80;;;;;;;;;;5128714;27;20199;-31
2022/11/02 04:14:37;;;;;;;2.70;2.50;;;;;;;;;;5097359;28;20207;-31
2022/11/02 04:19:51;;;;;;;2.80;2.60;;;;;;;;;;5097646;27;20234;-31
2022/11/02 04:25:17;;;;;;;3.23;2.90;;;;;;;;;;5119603;27;20193;-30
2022/11/02 04:27:45;;;;;;;2.73;2.50;;;;;;;;;;5109927;27;20244;-31
2022/11/02 04:30:13;;;;;;;2.77;2.50;;;;;;;;;;5109305;27;20231;-33
2022/11/02 04:35:26;;;;;;;4.13;2.47;;;;;;;;;;5100977;27;20285;-30
2022/11/02 04:40:38;;;;;;;2.80;2.60;;;;;;;;;;5110508;28;20248;-33
2022/11/02 04:43:06;;;;;;;3.50;3.17;;;;;;;;;;5106319;28;20235;-31
2022/11/02 04:45:33;;;;;;;3.73;3.30;;;;;;;;;;5114882;28;20264;-31
2022/11/02 04:48:00;;;;;;;3.10;2.90;;;;;;;;;;5108024;28;20214;-31
2022/11/02 04:50:29;;;;;;;3.80;3.40;;;;;;;;;;5102748;28;20232;-33
2022/11/02 04:52:57;;;;;;;4.20;3.90;;;;;;;;;;5118278;28;20329;-32
2022/11/02 04:55:24;;;;;;;3.30;3.00;;;;;;;;;;5115945;28;20218;-33
2022/11/02 04:57:51;;;;;;;3.37;3.07;;;;;;;;;;5110663;28;20572;-34
2022/11/02 05:00:19;;;;;;;2.70;2.50;;;;;;;;;;5124938;28;20286;-30
2022/11/02 05:02:47;;;;;;;2.80;2.60;;;;;;;;;;5121967;28;20262;-32
2022/11/02 05:05:14;;;;;;;3.83;2.27;;;;;;;;;;5104243;28;20215;-34
2022/11/02 05:07:43;;;;;;;3.50;2.37;;;;;;;;;;5105637;28;20235;-31
2022/11/02 05:10:10;;;;;;;3.23;2.40;;;;;;;;;;5105033;28;20283;-31
2022/11/02 05:12:38;;;;;;;4.43;2.67;;;;;;;;;;5105317;28;20362;-31
2022/11/02 05:15:06;;;;;;;3.07;2.77;;;;;;;;;;5102420;28;20236;-31
2022/11/02 05:17:33;;;;;;;4.57;3.67;;;;;;;;;;5109219;28;20290;-30
2022/11/02 05:20:01;;;;;;;3.73;3.43;;;;;;;;;;5111431;28;20216;-31
2022/11/02 05:22:28;;;;;;;3.80;3.50;;;;;;;;;;5109703;28;20291;-31
2022/11/02 05:24:57;;;;;;;4.00;3.60;;;;;;;;;;5105121;28;20200;-32
2022/11/02 05:27:24;;;;;;;4.20;3.40;;;;;;;;;;5112735;28;20228;-32
2022/11/02 05:29:51;;;;;;;5.40;3.40;;;;;;;;;;5107798;28;20200;-34
2022/11/02 05:32:18;;;;;;;5.53;2.90;;;;;;;;;;5106654;28;20220;-30
2022/11/02 05:34:45;;;;;;;4.60;2.87;;;;;;;;;;5103265;28;20195;-31
2022/11/02 05:37:12;;;;;;;2.97;2.37;;;;;;;;;;5110384;28;20325;-30
2022/11/02 05:39:40;;;;;;;5.97;2.80;;;;;;;;;;5109935;28;20301;-30
2022/11/02 05:42:08;;;;;;;4.13;2.50;;;;;;;;;;5102771;27;20228;-32
2022/11/02 05:44:35;;;;;;;3.13;2.60;;;;;;;;;;5106834;28;20235;-30
2022/11/02 05:47:03;;;;;;;3.40;2.50;;;;;;;;;;5115284;28;20234;-32
2022/11/02 05:49:30;;;;;;;2.30;2.10;;;;;;;;;;5108183;28;20208;-29
2022/11/02 05:51:57;;;;;;;2.43;2.23;;;;;;;;;;5103651;27;20216;-31
2022/11/02 05:54:24;;;;;;;2.73;2.50;;;;;;;;;;5115622;28;20199;-31
2022/11/02 05:56:51;;;;;;;3.20;2.90;;;;;;;;;;5124172;27;20206;-33
2022/11/02 05:59:20;;;;;;;2.67;2.40;;;;;;;;;;5107607;27;20232;-30
2022/11/02 06:01:47;;;;;;;2.33;2.13;;;;;;;;;;5124296;27;20215;-33
2022/11/02 06:04:14;;;;;;;2.80;2.40;;;;;;;;;;5115911;27;20208;-33
2022/11/02 06:06:41;;;;;;;2.73;2.50;;;;;;;;;;5107784;27;20208;-33
2022/11/02 06:09:08;;;;;;;2.90;2.70;;;;;;;;;;5120246;27;20210;-32
2022/11/02 06:11:36;;;;;;;2.50;2.40;;;;;;;;;;5112361;28;20215;-32
2022/11/02 06:14:03;;;;;;;2.97;2.40;;;;;;;;;;5111114;28;20291;-29
2022/11/02 06:16:32;;;;;;;2.77;2.53;;;;;;;;;;5123776;27;20288;-33
2022/11/02 06:19:00;;;;;;;3.47;2.23;;;;;;;;;;5111245;28;20287;-32
2022/11/02 06:21:27;;;;;;;4.20;2.30;;;;;;;;;;5104630;28;20319;-31
2022/11/02 06:23:54;;;;;;;4.20;2.30;;;;;;;;;;5115304;28;20199;-33
2022/11/02 06:26:21;;;;;;;3.07;2.10;;;;;;;;;;5113739;28;20200;-34
2022/11/02 06:28:48;;;;;;;2.50;2.30;;;;;;;;;;5114881;27;20207;-32
2022/11/02 06:33:52;;;;;;;3.67;2.43;;;;;;;;;;5204592;22;20319;-35
2022/11/02 06:36:20;;;;;;;4.27;3.67;;;;;;;;;;5084084;28;20204;-30
2022/11/02 06:38:47;;;;;;;3.90;3.47;;;;;;;;;;5086172;28;20207;-30
2022/11/02 06:41:14;;;;;;;3.67;3.00;;;;;;;;;;5100852;28;20793;-34
2022/11/02 06:43:41;;;;;;;4.93;3.00;;;;;;;;;;5109149;28;20286;-34
2022/11/02 06:46:08;;;;;;;3.10;2.70;;;;;;;;;;5105527;28;20211;-27
2022/11/02 06:48:35;;;;;;;3.03;2.73;;;;;;;;;;5103549;28;20286;-29
2022/11/02 06:51:04;;;;;;;4.23;2.90;;;;;;;;;;5094801;28;20227;-33
2022/11/02 06:53:31;;;;;;;4.20;2.67;;;;;;;;;;5093893;28;20319;-31
2022/11/02 06:55:59;;;;;;;3.03;2.33;;;;;;;;;;5094321;28;20208;-29
2022/11/02 06:58:27;;;;;;;4.43;2.53;;;;;;;;;;5093699;28;20204;-34
2022/11/02 07:00:57;;;;;;;2.53;2.20;;;;;;;;;;5098295;28;20235;-32
2022/11/02 07:03:25;;;;;;;2.40;2.13;;;;;;;;;;5094844;28;20280;-32
2022/11/02 07:05:52;;;;;;;3.00;2.20;;;;;;;;;;5094502;28;20287;-31
2022/11/02 07:08:21;;;;;;;3.03;2.20;;;;;;;;;;5096542;28;20201;-32
2022/11/02 07:10:48;;;;;;;2.93;2.70;;;;;;;;;;5111429;28;20216;-34
2022/11/02 07:13:15;;;;;;;3.90;2.90;;;;;;;;;;5093420;28;20311;-33
2022/11/02 07:15:42;;;;;;;4.50;3.37;;;;;;;;;;5099420;28;20200;-33
2022/11/02 07:18:10;;;;;;;4.47;2.93;;;;;;;;;;5094912;28;20211;-33
2022/11/02 07:20:37;;;;;;;3.00;2.70;;;;;;;;;;5095077;28;20227;-33
2022/11/02 07:23:04;;;;;;;3.60;3.30;;;;;;;;;;5094108;28;20197;-33
2022/11/02 07:25:33;;;;;;;3.63;2.50;;;;;;;;;;5094038;28;20203;-30
2022/11/02 07:28:01;;;;;;;3.43;2.93;;;;;;;;;;5096706;28;20227;-33
2022/11/02 07:30:28;;;;;;;5.23;2.83;;;;;;;;;;5102171;28;20311;-28
2022/11/02 07:32:55;;;;;;;6.60;2.73;;;;;;;;;;5098205;28;20231;-34
2022/11/02 07:35:22;;;;;;;3.83;2.23;;;;;;;;;;5100346;28;20295;-29
2022/11/02 07:37:56;;;;;;;3.37;2.53;;;;;;;;;;5093571;28;20362;-33
2022/11/02 07:40:23;;;;;;;3.10;2.80;;;;;;;;;;5096349;28;20246;-31
2022/11/02 07:42:53;;;;;;;3.07;2.77;;;;;;;;;;5094107;28;20291;-30
2022/11/02 07:45:20;;;;;;;4.63;2.47;;;;;;;;;;5098707;28;20207;-32
2022/11/02 07:47:48;;;;;;;3.23;2.80;;;;;;;;;;5108424;28;20205;-34
2022/11/02 07:50:19;;;;;;;3.00;2.60;;;;;;;;;;5092835;28;20597;-34
2022/11/02 07:52:47;;;;;;;3.67;2.60;;;;;;;;;;5092856;28;20209;-32
2022/11/02 07:55:14;;;;;;;2.53;2.30;;;;;;;;;;5093171;28;20200;-33
2022/11/02 07:57:42;;;;;;;4.97;2.93;;;;;;;;;;5095089;28;20299;-33
2022/11/02 08:00:12;;;;;;;2.77;2.37;;;;;;;;;;5101051;28;20244;-33
2022/11/02 08:02:39;;;;;;;4.83;2.50;;;;;;;;;;5103227;28;20239;-33
2022/11/02 08:05:06;;;;;;;2.90;2.33;;;;;;;;;;5099591;28;20196;-34
2022/11/02 08:07:33;;;;;;;4.13;2.70;;;;;;;;;;5099210;28;20630;-33
2022/11/02 08:10:00;;;;;;;3.77;2.63;;;;;;;;;;5104209;28;20224;-30
2022/11/02 08:12:27;;;;;;;4.50;2.30;;;;;;;;;;5092959;28;20314;-32
2022/11/02 08:14:55;;;;;;;2.87;2.30;;;;;;;;;;5097329;28;20203;-33
2022/11/02 08:17:24;;;;;;;6.33;2.80;;;;;;;;;;5102407;28;20281;-30
2022/11/02 08:19:51;;;;;;;3.50;2.07;;;;;;;;;;5091193;28;20200;-34
2022/11/02 08:22:18;;;;;;;2.57;2.37;;;;;;;;;;5090097;28;20283;-33
2022/11/02 08:24:45;;;;;;;2.87;2.23;;;;;;;;;;5090699;28;20211;-34
2022/11/02 08:27:12;;;;;;;4.73;2.63;;;;;;;;;;5092784;28;20219;-34
2022/11/02 08:29:39;;;;;;;3.00;2.70;;;;;;;;;;5091237;28;20200;-33
2022/11/02 08:32:06;;;;;;;3.23;2.50;;;;;;;;;;5108078;28;20219;-32
2022/11/02 08:34:35;;;;;;;3.53;2.40;;;;;;;;;;5105575;28;20291;-33
2022/11/02 08:37:02;;;;;;;5.70;2.90;;;;;;;;;;5099370;28;20200;-35
2022/11/02 08:39:29;;;;;;;4.87;2.60;;;;;;;;;;5103737;28;20275;-38
2022/11/02 08:41:56;;;;;;;3.40;2.50;;;;;;;;;;5093466;28;20222;-32
2022/11/02 08:44:23;;;;;;;2.80;2.40;;;;;;;;;;5092710;28;20209;-31
2022/11/02 08:46:50;;;;;;;6.00;2.37;;;;;;;;;;5093988;28;20215;-31
2022/11/02 08:49:24;;;;;;;4.57;2.40;;;;;;;;;;5084926;28;20214;-33
2022/11/02 08:51:58;;;;;;;5.23;2.80;;;;;;;;;;5101777;28;20234;-33
2022/11/02 08:54:25;;;;;;;4.83;2.57;;;;;;;;;;5105185;28;20287;-32
2022/11/02 08:56:53;;;;;;;3.33;2.20;;;;;;;;;;5109945;28;20210;-34
2022/11/02 08:59:20;;;;;;;4.47;2.60;;;;;;;;;;5096278;28;20196;-35
2022/11/02 09:01:48;;;;;;;3.93;2.50;;;;;;;;;;5095816;28;20235;-35
2022/11/02 09:04:18;;;;;;;5.20;2.63;;;;;;;;;;5099136;28;20298;-34
2022/11/02 09:06:45;;;;;;;4.10;2.37;;;;;;;;;;5098491;28;20204;-30
2022/11/02 09:09:14;;;;;;;3.17;2.50;;;;;;;;;;5094760;28;20208;-32
2022/11/02 09:11:41;;;;;;;3.30;2.53;;;;;;;;;;5105498;28;20228;-33
2022/11/02 09:14:08;;;;;;;5.20;2.60;;;;;;;;;;5103199;28;20212;-32
2022/11/02 09:16:35;;;;;;;5.23;2.80;;;;;;;;;;5096402;27;20200;-36
2022/11/02 09:19:02;;;;;;;3.83;2.70;;;;;;;;;;5108491;27;20203;-30
2022/11/02 09:21:29;;;;;;;15.20;6.17;;;;;;;;;;5105779;27;20223;-32
2022/11/02 09:23:57;;;;;;;5.23;3.10;;;;;;;;;;5108896;27;20287;-33
2022/11/02 09:26:25;;;;;;;5.00;3.33;;;;;;;;;;5114979;27;20250;-33
2022/11/02 09:28:52;;;;;;;5.07;3.30;;;;;;;;;;5114567;27;20210;-32
2022/11/02 09:31:19;;;;;;;17.07;10.37;;;;;;;;;;5112085;27;20231;-33
2022/11/02 09:33:46;;;;;;;17.67;10.43;;;;;;;;;;5093643;27;20220;-31
2022/11/02 09:36:22;;;;;;;35.50;21.27;;;;;;;;;;5108773;27;20219;-35
2022/11/02 09:38:49;;;;;;;14.17;6.67;;;;;;;;;;5111616;27;20279;-32
2022/11/02 09:41:20;;;;;;;5.57;3.30;;;;;;;;;;5092394;27;20277;-31
2022/11/02 09:43:58;;;;;;;5.90;3.30;;;;;;;;;;5111442;27;20192;-32
2022/11/02 09:46:30;;;;;;;7.70;3.10;;;;;;;;;;5091612;28;20549;-34
2022/11/02 09:48:59;;;;;;;5.37;2.60;;;;;;;;;;5096903;27;20255;-30
2022/11/02 09:51:29;;;;;;;9.23;2.50;;;;;;;;;;5099882;27;20232;-33
2022/11/02 09:53:59;;;;;;;11.07;5.10;;;;;;;;;;5114927;27;20303;-35
2022/11/02 09:56:27;;;;;;;8.50;2.63;;;;;;;;;;5094938;27;20228;-32
2022/11/02 09:58:58;;;;;;;4.40;2.00;;;;;;;;;;5117553;27;20208;-30
2022/11/02 10:01:45;;;;;;;5.17;1.70;;;;;;;;;;5116579;27;20219;-31
2022/11/02 10:04:20;;;;;;;5.77;1.60;;;;;;;;;;5104370;27;20272;-35
2022/11/02 10:06:52;;;;;;;4.97;3.03;;;;;;;;;;5103067;27;20291;-32
2022/11/02 10:09:22;;;;;;;5.77;2.17;;;;;;;;;;5097839;27;20244;-30
2022/11/02 10:11:55;;;;;;;3.53;1.47;;;;;;;;;;5103164;27;20233;-29
2022/11/02 10:14:28;;;;;;;5.10;1.37;;;;;;;;;;5094644;27;20220;-33
2022/11/02 10:16:58;;;;;;;3.10;1.40;;;;;;;;;;5100596;27;20204;-34
2022/11/02 10:19:25;;;;;;;6.30;1.60;;;;;;;;;;5119497;27;20203;-31
2022/11/02 10:21:54;;;;;;;4.93;1.83;;;;;;;;;;5107439;27;20220;-33
2022/11/02 10:24:24;;;;;;;6.43;1.67;;;;;;;;;;5101150;27;20199;-34
2022/11/02 10:26:52;;;;;;;8.03;1.93;;;;;;;;;;5115833;27;20204;-33
2022/11/02 10:29:23;;;;;;;2.30;1.30;;;;;;;;;;5111956;28;20295;-36
2022/11/02 10:31:52;;;;;;;2.23;1.00;;;;;;;;;;5103389;27;20244;-31
2022/11/02 10:34:23;;;;;;;3.57;1.30;;;;;;;;;;5096966;27;20221;-32
2022/11/02 10:36:55;;;;;;;3.40;1.23;;;;;;;;;;5121480;27;20207;-30
2022/11/02 10:39:26;;;;;;;3.67;1.40;;;;;;;;;;5122467;27;20204;-33
2022/11/02 10:42:06;;;;;;;2.00;1.23;;;;;;;;;;5098351;27;20227;-32
2022/11/02 10:44:54;;;;;;;6.43;1.43;;;;;;;;;;5098545;27;20201;-33
2022/11/02 10:47:23;;;;;;;3.63;1.97;;;;;;;;;;5108896;27;20252;-30
2022/11/02 10:49:59;;;;;;;5.00;1.23;;;;;;;;;;5100839;27;20292;-32
2022/11/02 10:52:29;;;;;;;2.90;1.40;;;;;;;;;;5114534;27;20210;-30
2022/11/02 10:54:56;;;;;;;3.37;1.37;;;;;;;;;;5109845;27;20215;-33
2022/11/02 10:57:25;;;;;;;3.83;1.50;;;;;;;;;;5119753;27;20211;-31
2022/11/02 11:00:10;;;;;;;3.20;1.53;;;;;;;;;;5121072;27;20200;-28
2022/11/02 11:02:38;;;;;;;2.80;1.37;;;;;;;;;;5111556;27;20306;-31
2022/11/02 11:05:13;;;;;;;3.33;1.10;;;;;;;;;;5112339;27;20200;-34
2022/11/02 11:07:44;;;;;;;4.50;1.10;;;;;;;;;;5114621;27;20218;-31
2022/11/02 11:10:15;;;;;;;5.50;1.50;;;;;;;;;;5111533;27;20227;-35
2022/11/02 11:12:44;;;;;;;4.30;1.23;;;;;;;;;;5120067;27;20289;-33
2022/11/02 11:15:22;;;;;;;3.93;1.20;;;;;;;;;;5112331;27;20212;-34
2022/11/02 11:17:51;;;;;;;2.67;1.20;;;;;;;;;;5106424;27;20204;-30
2022/11/02 11:20:33;;;;;;;6.73;1.43;;;;;;;;;;5092062;28;20349;-32
2022/11/02 11:23:10;;;;;;;4.80;1.20;;;;;;;;;;5117548;27;20195;-32
2022/11/02 11:25:37;;;;;;;3.63;1.40;;;;;;;;;;5096740;27;20338;-33
2022/11/02 11:28:21;;;;;;;5.80;1.50;;;;;;;;;;5094585;28;20296;-34
2022/11/02 11:30:50;;;;;;;8.30;2.03;;;;;;;;;;5103528;27;20223;-35
2022/11/02 11:33:21;;;;;;;3.47;1.60;;;;;;;;;;5100701;28;20312;-32
2022/11/02 11:35:50;;;;;;;2.67;1.43;;;;;;;;;;5108561;27;20196;-31
2022/11/02 11:38:18;;;;;;;13.10;4.77;;;;;;;;;;5123797;27;20200;-33
2022/11/02 11:40:47;;;;;;;10.37;2.90;;;;;;;;;;5105039;27;20224;-30
2022/11/02 11:43:16;;;;;;;7.60;2.40;;;;;;;;;;5108086;27;20224;-31
2022/11/02 11:45:54;;;;;;;3.87;1.83;;;;;;;;;;5097794;28;20209;-32
2022/11/02 11:48:26;;;;;;;4.00;1.60;;;;;;;;;;5099614;28;20200;-32
2022/11/02 11:50:53;;;;;;;6.50;2.00;;;;;;;;;;5111103;27;20228;-36
2022/11/02 11:53:22;;;;;;;5.50;1.40;;;;;;;;;;5094081;28;20227;-33
2022/11/02 11:55:50;;;;;;;6.03;1.60;;;;;;;;;;5110193;27;20219;-33
2022/11/02 11:58:21;;;;;;;7.50;2.17;;;;;;;;;;5126555;27;20217;-33
2022/11/02 12:01:02;;;;;;;4.73;1.90;;;;;;;;;;5114432;27;20222;-35
2022/11/02 12:03:30;;;;;;;4.70;1.40;;;;;;;;;;5102885;27;20196;-34
2022/11/02 12:06:03;;;;;;;6.57;1.93;;;;;;;;;;5102532;27;20269;-34
2022/11/02 12:08:36;;;;;;;4.83;1.13;;;;;;;;;;5108139;27;20200;-34
2022/11/02 12:11:12;;;;;;;2.37;1.70;;;;;;;;;;5099176;27;20311;-32
2022/11/02 12:13:55;;;;;;;5.87;1.97;;;;;;;;;;5106110;27;20225;-29
2022/11/02 12:16:28;;;;;;;5.47;1.23;;;;;;;;;;5112313;27;20303;-36
2022/11/02 12:19:13;;;;;;;5.60;1.50;;;;;;;;;;5106634;27;20328;-33
2022/11/02 12:21:51;;;;;;;5.20;1.07;;;;;;;;;;5104157;27;20232;-36
2022/11/02 12:24:24;;;;;;;3.40;1.00;;;;;;;;;;5104437;27;20199;-34
2022/11/02 12:26:57;;;;;;;6.17;1.23;;;;;;;;;;5110351;27;20200;-33
2022/11/02 12:29:42;;;;;;;1.87;1.23;;;;;;;;;;5092888;28;20205;-35
2022/11/02 12:32:21;;;;;;;6.33;1.37;;;;;;;;;;5198166;22;20297;-33
2022/11/02 12:35:01;;;;;;;2.83;1.37;;;;;;;;;;5104392;28;20223;-29
2022/11/02 12:37:34;;;;;;;3.67;1.10;;;;;;;;;;5111616;28;20204;-33
2022/11/02 12:40:06;;;;;;;2.97;1.07;;;;;;;;;;5115134;28;20228;-29
2022/11/02 12:42:35;;;;;;;4.57;1.30;;;;;;;;;;5106712;28;20200;-31
2022/11/02 12:45:09;;;;;;;2.60;1.20;;;;;;;;;;5104041;28;20264;-33
2022/11/02 12:47:41;;;;;;;1.70;1.07;;;;;;;;;;5119336;28;20268;-33
2022/11/02 12:50:14;;;;;;;5.07;1.23;;;;;;;;;;5105734;28;20221;-32
2022/11/02 12:52:49;;;;;;;2.13;0.90;;;;;;;;;;5117346;28;20209;-36
2022/11/02 12:55:17;;;;;;;4.00;1.20;;;;;;;;;;5128730;27;20208;-31
2022/11/02 12:57:45;;;;;;;3.30;1.07;;;;;;;;;;5136812;27;20205;-33
2022/11/02 13:00:20;;;;;;;5.10;1.40;;;;;;;;;;5112122;27;20232;-33
2022/11/02 13:02:52;;;;;;;6.77;1.30;;;;;;;;;;5123126;27;20271;-35
2022/11/02 13:05:21;;;;;;;4.10;1.20;;;;;;;;;;5098228;28;20298;-36
2022/11/02 13:07:52;;;;;;;4.07;1.13;;;;;;;;;;5112793;28;20292;-32
2022/11/02 13:10:21;;;;;;;7.37;1.37;;;;;;;;;;5114098;28;20223;-32
2022/11/02 13:12:49;;;;;;;5.53;1.33;;;;;;;;;;5109330;27;20207;-29
2022/11/02 13:15:18;;;;;;;5.37;1.40;;;;;;;;;;5107419;28;20229;-34
2022/11/02 13:17:46;;;;;;;3.13;0.90;;;;;;;;;;5125682;27;20232;-33
2022/11/02 13:20:16;;;;;;;4.80;1.23;;;;;;;;;;5112321;27;20217;-34
2022/11/02 13:22:47;;;;;;;5.93;1.30;;;;;;;;;;5105578;27;20207;-33
2022/11/02 13:25:16;;;;;;;3.77;1.17;;;;;;;;;;5113607;28;20577;-32
2022/11/02 13:27:48;;;;;;;4.73;1.10;;;;;;;;;;5106496;28;20204;-33
2022/11/02 13:30:15;;;;;;;6.17;1.20;;;;;;;;;;5128944;27;20236;-33
2022/11/02 13:32:44;;;;;;;2.77;1.23;;;;;;;;;;5114749;27;20203;-31
2022/11/02 13:35:16;;;;;;;3.70;1.20;;;;;;;;;;5108386;27;20244;-35
2022/11/02 13:37:46;;;;;;;5.43;1.17;;;;;;;;;;5112492;27;20836;-31
2022/11/02 13:40:16;;;;;;;2.97;1.20;;;;;;;;;;5116840;27;20236;-31
2022/11/02 13:43:10;;;;;;;1.17;0.80;;;;;;;;;;5110010;27;20272;-32
2022/11/02 13:45:54;;;;;;;5.27;0.93;;;;;;;;;;5069671;27;20291;-31
2022/11/02 13:48:26;;;;;;;5.80;1.17;;;;;;;;;;5113006;28;20262;-34
2022/11/02 13:50:54;;;;;;;6.03;0.90;;;;;;;;;;5099226;27;20302;-31
2022/11/02 13:53:26;;;;;;;7.60;1.43;;;;;;;;;;5112426;28;20214;-28
2022/11/02 13:55:55;;;;;;;3.60;1.20;;;;;;;;;;5094449;28;20195;-33
2022/11/02 13:58:24;;;;;;;3.93;1.10;;;;;;;;;;5104445;28;20197;-31
2022/11/02 14:00:53;;;;;;;1.90;0.77;;;;;;;;;;5096886;28;20319;-35
2022/11/02 14:03:22;;;;;;;4.07;0.83;;;;;;;;;;5116986;27;20203;-35
2022/11/02 14:05:52;;;;;;;2.80;1.10;;;;;;;;;;5105502;27;20204;-32
2022/11/02 14:08:21;;;;;;;3.17;1.53;;;;;;;;;;5123633;27;20195;-35
2022/11/02 14:11:03;;;;;;;4.00;1.13;;;;;;;;;;5110614;28;20288;-33
2022/11/02 14:13:49;;;;;;;2.53;1.00;;;;;;;;;;5109463;28;20204;-31
2022/11/02 14:16:31;;;;;;;5.40;1.40;;;;;;;;;;5112455;27;20204;-33
2022/11/02 14:19:13;;;;;;;3.73;1.30;;;;;;;;;;5111801;27;20204;-33
2022/11/02 14:21:41;;;;;;;2.80;1.10;;;;;;;;;;5114917;27;20299;-30
2022/11/02 14:24:27;;;;;;;3.50;1.83;;;;;;;;;;5120171;27;20301;-34
2022/11/02 14:26:56;;;;;;;3.67;1.00;;;;;;;;;;5112822;28;20214;-34
2022/11/02 14:29:47;;;;;;;2.70;1.00;;;;;;;;;;5108136;27;20294;-31
2022/11/02 14:32:19;;;;;;;14.10;1.97;;;;;;;;;;5106833;27;20236;-32
2022/11/02 14:34:55;;;;;;;4.97;1.80;;;;;;;;;;5115843;27;20216;-36
2022/11/02 14:37:40;;;;;;;4.47;1.10;;;;;;;;;;5115782;27;20286;-31
2022/11/02 14:40:13;;;;;;;5.37;1.27;;;;;;;;;;5122849;27;20227;-32
2022/11/02 14:42:55;;;;;;;4.97;1.40;;;;;;;;;;5109412;27;20201;-33
2022/11/02 14:45:37;;;;;;;3.33;1.57;;;;;;;;;;5124983;27;20283;-35
2022/11/02 14:48:07;;;;;;;4.17;1.50;;;;;;;;;;5103394;28;20208;-31
2022/11/02 14:50:34;;;;;;;2.63;1.40;;;;;;;;;;5106988;28;20311;-34
2022/11/02 14:53:04;;;;;;;6.50;1.20;;;;;;;;;;5109176;28;20197;-31
2022/11/02 14:55:32;;;;;;;4.23;1.20;;;;;;;;;;5112896;28;20236;-28
2022/11/02 14:58:03;;;;;;;1.93;1.30;;;;;;;;;;5108639;28;20761;-31
2022/11/02 15:00:33;;;;;;;7.80;1.43;;;;;;;;;;5104259;27;20228;-34
2022/11/02 15:03:00;;;;;;;4.33;1.10;;;;;;;;;;5115121;27;20201;-30
2022/11/02 15:05:30;;;;;;;3.73;1.10;;;;;;;;;;5097370;27;20205;-33
2022/11/02 15:07:58;;;;;;;3.30;1.43;;;;;;;;;;5101094;28;20199;-33
2022/11/02 15:10:42;;;;;;;4.20;1.30;;;;;;;;;;5107479;27;20315;-32
2022/11/02 15:13:37;;;;;;;2.93;1.03;;;;;;;;;;5111384;28;20210;-32
2022/11/02 15:16:22;;;;;;;1.90;1.20;;;;;;;;;;5063647;27;20533;-33